Amsterdam, Montana
Current Conditions -  °F | °C
As of 8:56 AM on Sunday 21 Dec 2014 (Local Time) from KBZN Reporting Station
Overcast Overcast  
Wind Chill: 32°   Ceiling: 5000
Heat Index: 39°   Visibility: 10mi
Dew Point: 31°   Wind: 10mph
Humidity: 73%   Direction: 30°NNE
Pressure: 29.53"   Gusts: NA
Location:  45.7517°N, 111.347°W
Report Text: KBZN 211556Z 03009KT 10SM BKN050 OVC075 04/M01 A2953 RMK AO2 SLP018 T00391006
Loading
Personal Weather Stations






























Interactive Weather Map New forecast layout! Learn more

10-Day Weather Forecast

Advertisements
Track Severe Weather on mobile